Time;durP1;ratioP1;P1;durP2;ratioP2;P2;SDS_P1;SDS_P2;PMS_P1;PMS_P2;Temp;Humidity;BMP_temperature;BMP_pressure;BME280_temperature;BME280_humidity;BME280_pressure;Samples;Min_cycle;Max_cycle;Signal;HPM_P1;HPM_P2
2021/01/05 00:00:13;;;;;;;13.50;9.93;;;0.60;97.00;;;;;;5117695;28;20445;-44
2021/01/05 00:02:40;;;;;;;13.50;10.37;;;0.60;96.80;;;;;;5118062;28;20474;-45
2021/01/05 00:05:07;;;;;;;17.30;11.07;;;0.60;96.90;;;;;;5117724;28;20484;-45
2021/01/05 00:07:34;;;;;;;15.20;11.70;;;0.60;97.10;;;;;;5117884;28;20437;-45
2021/01/05 00:10:00;;;;;;;15.10;10.93;;;0.70;97.20;;;;;;5117981;28;20429;-45
2021/01/05 00:12:27;;;;;;;15.33;11.60;;;0.70;97.10;;;;;;5117131;28;21015;-45
2021/01/05 00:14:52;;;;;;;15.10;10.33;;;0.70;97.10;;;;;;5118046;28;20180;-43
2021/01/05 00:17:20;;;;;;;13.77;10.70;;;0.70;97.10;;;;;;5121743;28;20704;-43
2021/01/05 00:19:52;;;;;;;15.20;11.47;;;0.70;96.90;;;;;;5120906;28;20470;-43
2021/01/05 00:22:18;;;;;;;14.37;10.40;;;0.70;97.00;;;;;;5120921;27;20691;-44
2021/01/05 00:24:44;;;;;;;16.00;11.27;;;0.70;97.00;;;;;;5120849;28;20437;-45
2021/01/05 00:27:11;;;;;;;14.47;10.57;;;0.70;97.00;;;;;;5120502;28;20427;-44
2021/01/05 00:29:37;;;;;;;12.73;10.33;;;0.80;97.10;;;;;;5120924;28;20455;-44
2021/01/05 00:32:04;;;;;;;13.70;10.00;;;0.80;96.80;;;;;;5120341;28;20545;-43
2021/01/05 00:34:30;;;;;;;13.20;9.17;;;0.80;96.90;;;;;;5120451;28;20421;-44
2021/01/05 00:36:57;;;;;;;13.67;10.37;;;0.80;96.90;;;;;;5121000;28;20559;-44
2021/01/05 00:39:22;;;;;;;13.40;9.90;;;0.80;96.80;;;;;;5121155;28;20547;-43
2021/01/05 00:41:48;;;;;;;13.60;10.20;;;0.80;96.70;;;;;;5120472;28;20520;-44
2021/01/05 00:44:14;;;;;;;11.70;9.07;;;0.80;96.80;;;;;;5120789;28;20180;-44
2021/01/05 00:46:39;;;;;;;11.10;8.90;;;0.80;96.70;;;;;;5120323;28;20203;-44
2021/01/05 00:49:05;;;;;;;12.57;8.77;;;0.70;96.70;;;;;;5120735;28;20176;-44
2021/01/05 00:51:31;;;;;;;10.50;8.67;;;0.70;96.80;;;;;;5120637;28;20208;-44
2021/01/05 00:53:57;;;;;;;11.67;9.37;;;0.70;96.80;;;;;;5120056;28;20219;-44
2021/01/05 00:56:22;;;;;;;14.20;8.97;;;0.80;96.80;;;;;;5120338;28;20224;-44
2021/01/05 00:58:48;;;;;;;12.93;9.23;;;0.80;96.80;;;;;;5120970;28;20270;-44
2021/01/05 01:01:15;;;;;;;14.23;9.33;;;0.80;96.80;;;;;;5139479;27;20504;-44
2021/01/05 01:03:41;;;;;;;12.60;9.40;;;0.80;96.80;;;;;;5140235;27;20289;-44
2021/01/05 01:06:10;;;;;;;13.30;10.20;;;0.70;96.90;;;;;;5141336;27;20509;-44
2021/01/05 01:08:35;;;;;;;15.07;10.67;;;0.80;97.00;;;;;;5140006;27;20195;-44
2021/01/05 01:11:02;;;;;;;13.83;9.63;;;0.80;96.90;;;;;;5140610;27;20489;-43
2021/01/05 01:13:31;;;;;;;14.07;10.90;;;0.70;96.90;;;;;;5140608;27;20574;-44
2021/01/05 01:15:57;;;;;;;14.20;10.70;;;0.80;97.20;;;;;;5139764;27;20519;-43
2021/01/05 01:18:23;;;;;;;14.10;10.23;;;0.80;97.10;;;;;;5140811;27;20448;-44
2021/01/05 01:20:48;;;;;;;16.40;11.57;;;0.80;97.10;;;;;;5140438;27;20259;-44
2021/01/05 01:23:26;;;;;;;15.13;11.27;;;0.80;96.90;;;;;;5140763;27;20194;-44
2021/01/05 01:25:52;;;;;;;16.93;12.30;;;0.70;97.00;;;;;;5140437;27;20225;-44
2021/01/05 01:28:18;;;;;;;16.03;10.80;;;0.70;97.20;;;;;;5140210;27;20822;-44
2021/01/05 01:30:44;;;;;;;15.47;11.33;;;0.80;97.30;;;;;;5139279;27;20214;-43
2021/01/05 01:33:09;;;;;;;13.30;10.83;;;0.80;97.10;;;;;;5139468;27;20558;-43
2021/01/05 01:35:35;;;;;;;16.50;11.47;;;0.80;97.00;;;;;;5140118;27;20536;-44
2021/01/05 01:38:01;;;;;;;13.70;9.83;;;0.80;97.00;;;;;;5139946;27;20175;-44
2021/01/05 01:40:41;;;;;;;14.40;10.10;;;0.80;97.10;;;;;;5140447;27;20623;-44
2021/01/05 01:43:07;;;;;;;16.13;11.67;;;0.80;97.20;;;;;;5140217;27;20187;-44
2021/01/05 01:45:33;;;;;;;21.47;11.63;;;0.90;97.20;;;;;;5139961;27;20467;-44
2021/01/05 01:48:01;;;;;;;15.90;11.47;;;0.90;97.30;;;;;;5138993;27;20444;-44
2021/01/05 01:50:30;;;;;;;19.17;11.87;;;0.90;97.30;;;;;;5140135;27;20183;-44
2021/01/05 01:53:32;;;;;;;17.53;11.90;;;0.90;96.90;;;;;;5138958;27;20468;-44
2021/01/05 01:56:10;;;;;;;15.53;10.30;;;0.90;97.10;;;;;;5139673;27;20514;-44
2021/01/05 01:58:58;;;;;;;19.97;12.93;;;0.90;97.00;;;;;;5138908;27;20430;-43
2021/01/05 02:01:42;;;;;;;17.50;12.20;;;0.90;97.00;;;;;;5137769;27;20420;-44
2021/01/05 02:04:37;;;;;;;17.50;11.80;;;0.90;97.10;;;;;;5138517;27;20519;-44
2021/01/05 02:07:26;;;;;;;19.33;13.07;;;1.00;97.20;;;;;;5138419;27;20581;-44
2021/01/05 02:10:03;;;;;;;17.47;13.00;;;0.90;97.30;;;;;;5138496;27;20429;-43
2021/01/05 02:12:38;;;;;;;18.50;13.70;;;1.00;97.40;;;;;;5138702;27;20477;-44
2021/01/05 02:15:23;;;;;;;17.37;10.77;;;1.00;97.40;;;;;;5139039;27;20423;-44
2021/01/05 02:18:08;;;;;;;18.83;12.90;;;1.00;97.30;;;;;;5138947;27;20427;-44
2021/01/05 02:20:51;;;;;;;17.83;13.07;;;1.00;97.30;;;;;;5138372;27;20424;-44
2021/01/05 02:23:17;;;;;;;20.20;13.93;;;1.00;97.10;;;;;;5138781;27;20485;-44
2021/01/05 02:26:00;;;;;;;16.20;12.80;;;1.00;97.30;;;;;;5139602;27;20420;-44
2021/01/05 02:28:39;;;;;;;21.63;13.50;;;1.00;97.30;;;;;;5139253;27;20205;-44
2021/01/05 02:31:14;;;;;;;19.87;14.63;;;0.90;97.50;;;;;;5129401;27;20834;-44
2021/01/05 02:34:22;;;;;;;18.60;13.30;;;0.90;97.30;;;;;;5118730;28;20508;-44
2021/01/05 02:36:57;;;;;;;20.17;13.10;;;1.00;97.40;;;;;;5118932;28;20414;-44
2021/01/05 02:39:51;;;;;;;22.77;13.03;;;1.00;97.50;;;;;;5123052;27;20432;-42
2021/01/05 02:42:27;;;;;;;16.23;12.10;;;1.00;97.50;;;;;;5102172;27;20511;-44
2021/01/05 02:45:06;;;;;;;19.13;12.60;;;1.10;97.50;;;;;;5139459;27;20497;-44
2021/01/05 02:47:41;;;;;;;19.43;13.40;;;1.00;97.30;;;;;;5137769;27;20439;-44
2021/01/05 02:50:35;;;;;;;23.50;13.43;;;1.00;97.30;;;;;;5138798;27;20424;-44
2021/01/05 02:53:45;;;;;;;20.27;13.13;;;1.10;97.40;;;;;;5137893;27;20570;-44
2021/01/05 02:56:46;;;;;;;17.00;12.27;;;1.10;97.40;;;;;;5139272;27;20423;-44
2021/01/05 02:59:58;;;;;;;17.43;12.87;;;1.20;97.40;;;;;;5137646;27;20455;-44
2021/01/05 03:02:56;;;;;;;17.60;12.33;;;1.20;97.30;;;;;;5085246;27;20789;-44
2021/01/05 03:05:22;;;;;;;16.57;12.47;;;1.20;97.10;;;;;;5138938;27;20436;-42
2021/01/05 03:07:49;;;;;;;17.20;12.30;;;1.20;97.10;;;;;;5123047;27;20438;-44
2021/01/05 03:10:48;;;;;;;17.27;12.30;;;1.20;97.10;;;;;;5116967;28;20545;-44
2021/01/05 03:13:26;;;;;;;20.17;14.13;;;1.20;97.10;;;;;;5117782;28;20890;-43
2021/01/05 03:15:58;;;;;;;18.77;13.00;;;1.20;97.20;;;;;;5117736;28;20460;-44
2021/01/05 03:18:33;;;;;;;19.07;13.33;;;1.20;97.10;;;;;;5117408;28;20418;-44
2021/01/05 03:21:22;;;;;;;18.30;12.80;;;1.20;97.00;;;;;;5117809;28;20927;-44
2021/01/05 03:23:50;;;;;;;18.83;13.10;;;1.20;97.10;;;;;;5128152;28;20436;-44
2021/01/05 03:26:16;;;;;;;17.63;13.03;;;1.20;97.20;;;;;;5117137;28;20457;-44
2021/01/05 03:28:43;;;;;;;20.50;14.30;;;1.20;97.20;;;;;;5122821;27;20433;-44
2021/01/05 03:31:36;;;;;;;22.47;14.27;;;1.20;97.30;;;;;;5138639;27;20710;-44
2021/01/05 03:34:02;;;;;;;20.47;13.10;;;1.10;97.20;;;;;;5138495;27;20468;-44
2021/01/05 03:36:28;;;;;;;19.43;14.10;;;1.10;97.40;;;;;;5138483;27;20425;-44
2021/01/05 03:38:54;;;;;;;19.80;12.80;;;1.10;97.30;;;;;;5136365;27;20486;-42
2021/01/05 03:41:20;;;;;;;19.47;13.00;;;1.10;97.30;;;;;;5137090;28;20438;-44
2021/01/05 03:43:46;;;;;;;21.73;14.10;;;1.10;97.40;;;;;;5136796;27;20478;-44
2021/01/05 03:46:12;;;;;;;17.93;13.40;;;1.00;97.30;;;;;;5136348;27;20412;-43
2021/01/05 03:48:38;;;;;;;19.57;14.70;;;1.00;97.50;;;;;;5137274;27;20179;-44
2021/01/05 03:51:04;;;;;;;19.50;13.57;;;1.00;97.40;;;;;;5141621;27;20668;-44
2021/01/05 03:53:30;;;;;;;21.57;13.83;;;1.00;97.60;;;;;;5141010;27;20533;-44
2021/01/05 03:55:56;;;;;;;20.43;14.73;;;1.00;97.60;;;;;;5141570;27;20602;-44
2021/01/05 03:58:22;;;;;;;21.03;13.87;;;1.00;97.60;;;;;;5126135;27;20548;-44
2021/01/05 04:00:47;;;;;;;20.20;14.70;;;1.00;97.70;;;;;;5120684;28;20592;-44
2021/01/05 04:03:13;;;;;;;22.93;14.17;;;1.00;98.10;;;;;;5120344;28;20426;-43
2021/01/05 04:05:39;;;;;;;22.70;14.63;;;1.00;97.70;;;;;;5120421;28;20702;-44
2021/01/05 04:08:05;;;;;;;23.20;15.10;;;1.00;97.80;;;;;;5121100;28;20238;-44
2021/01/05 04:10:31;;;;;;;18.27;14.27;;;1.00;97.90;;;;;;5122499;27;20429;-44
2021/01/05 04:12:58;;;;;;;22.27;16.37;;;1.00;98.00;;;;;;5141867;27;20538;-44
2021/01/05 04:15:28;;;;;;;22.97;16.00;;;1.00;98.00;;;;;;5135404;27;20438;-44
2021/01/05 04:17:56;;;;;;;25.40;16.33;;;0.90;97.90;;;;;;5121598;28;20409;-44
2021/01/05 04:20:23;;;;;;;25.30;16.70;;;0.90;98.00;;;;;;5120130;28;20680;-43
2021/01/05 04:22:50;;;;;;;27.37;15.93;;;0.90;98.20;;;;;;5121500;27;20684;-44
2021/01/05 04:25:17;;;;;;;25.33;16.50;;;0.90;98.40;;;;;;5121036;27;20429;-44
2021/01/05 04:27:44;;;;;;;29.80;18.73;;;1.00;98.20;;;;;;5121510;28;20504;-43
2021/01/05 04:30:23;;;;;;;29.40;18.10;;;0.90;98.20;;;;;;5126434;27;20968;-44
2021/01/05 04:32:49;;;;;;;31.77;19.93;;;0.90;98.30;;;;;;5140275;27;20997;-43
2021/01/05 04:35:16;;;;;;;30.03;19.50;;;0.90;98.40;;;;;;5139182;27;20647;-44
2021/01/05 04:37:42;;;;;;;30.20;19.47;;;0.90;98.40;;;;;;5140258;27;20421;-44
2021/01/05 04:40:10;;;;;;;30.90;19.60;;;0.90;98.60;;;;;;5139586;27;20427;-44
2021/01/05 04:42:38;;;;;;;33.33;21.70;;;0.90;98.80;;;;;;5139360;27;20195;-44
2021/01/05 04:45:06;;;;;;;34.70;20.67;;;0.90;99.00;;;;;;5133718;27;20806;-44
2021/01/05 04:48:00;;;;;;;33.63;22.50;;;0.90;99.10;;;;;;5120026;28;20508;-44
2021/01/05 04:50:43;;;;;;;36.23;22.27;;;0.90;99.20;;;;;;5119543;28;20417;-44
2021/01/05 04:53:17;;;;;;;35.90;23.20;;;1.00;99.20;;;;;;5118904;28;20465;-44
2021/01/05 04:55:54;;;;;;;30.23;20.27;;;1.00;99.20;;;;;;5124924;27;20548;-44
2021/01/05 04:58:26;;;;;;;42.93;23.60;;;1.00;99.20;;;;;;5140193;27;20432;-44
2021/01/05 05:00:54;;;;;;;34.80;22.77;;;1.00;99.30;;;;;;5107154;28;20433;-44
2021/01/05 05:03:41;;;;;;;37.70;20.60;;;1.00;99.40;;;;;;5118307;28;20976;-44
2021/01/05 05:07:02;;;;;;;35.27;22.30;;;1.00;99.40;;;;;;5116478;28;20902;-44
2021/01/05 05:09:49;;;;;;;36.67;24.17;;;1.00;99.40;;;;;;5104338;27;20475;-43
2021/01/05 05:12:58;;;;;;;38.77;24.30;;;1.10;99.50;;;;;;5116690;28;20489;-44
2021/01/05 05:15:46;;;;;;;37.80;23.57;;;1.10;99.40;;;;;;5085075;28;20439;-42
2021/01/05 05:18:40;;;;;;;35.47;21.90;;;1.00;99.40;;;;;;5116107;28;20816;-44
2021/01/05 05:21:23;;;;;;;35.07;23.00;;;1.10;99.50;;;;;;5120171;28;20413;-44
2021/01/05 05:24:07;;;;;;;36.37;24.00;;;1.10;99.50;;;;;;5119009;28;20413;-44
2021/01/05 05:26:47;;;;;;;37.53;23.10;;;1.10;99.60;;;;;;5119276;27;20463;-44
2021/01/05 05:29:31;;;;;;;36.03;23.20;;;1.20;99.60;;;;;;5123610;27;20440;-43
2021/01/05 05:32:00;;;;;;;36.10;24.60;;;1.20;99.50;;;;;;5139254;27;20518;-44
2021/01/05 05:34:30;;;;;;;47.63;26.27;;;1.20;99.60;;;;;;5138871;27;20421;-44
2021/01/05 05:37:14;;;;;;;39.53;24.90;;;1.20;99.60;;;;;;5137780;27;20481;-43
2021/01/05 05:40:24;;;;;;;35.90;22.10;;;1.20;99.60;;;;;;5137273;27;20497;-44
2021/01/05 05:43:08;;;;;;;37.17;24.30;;;1.20;99.60;;;;;;5105609;27;20470;-44
2021/01/05 05:45:51;;;;;;;36.63;23.03;;;1.30;99.40;;;;;;5137911;27;20431;-44
2021/01/05 05:48:44;;;;;;;37.30;24.50;;;1.20;99.40;;;;;;5137536;27;20421;-44
2021/01/05 05:51:17;;;;;;;35.80;22.97;;;1.30;99.60;;;;;;5137953;27;20447;-44
2021/01/05 05:54:13;;;;;;;36.13;22.27;;;1.30;99.60;;;;;;5138296;27;20456;-44
2021/01/05 05:56:48;;;;;;;39.07;24.57;;;1.20;99.60;;;;;;5114763;28;20429;-45
2021/01/05 05:59:15;;;;;;;39.77;23.73;;;1.20;99.60;;;;;;5118643;28;20417;-44
2021/01/05 06:01:41;;;;;;;35.53;23.40;;;1.20;99.70;;;;;;5118313;28;20908;-44
2021/01/05 06:04:09;;;;;;;34.53;23.83;;;1.30;99.80;;;;;;5118370;28;20426;-44
2021/01/05 06:06:37;;;;;;;39.13;25.93;;;1.30;99.80;;;;;;5118598;28;20270;-44
2021/01/05 06:09:03;;;;;;;42.47;26.60;;;1.30;99.80;;;;;;5118614;28;20711;-44
2021/01/05 06:11:37;;;;;;;41.97;25.30;;;1.30;99.90;;;;;;5117834;28;20432;-44
2021/01/05 06:14:04;;;;;;;33.03;22.80;;;1.30;99.90;;;;;;5121348;27;20582;-44
2021/01/05 06:16:30;;;;;;;40.43;24.53;;;1.30;99.90;;;;;;5137171;27;20408;-44
2021/01/05 06:18:58;;;;;;;36.57;24.03;;;1.30;99.90;;;;;;5138219;27;20409;-44
2021/01/05 06:21:23;;;;;;;35.20;22.97;;;1.30;99.90;;;;;;5138008;27;20420;-44
2021/01/05 06:23:49;;;;;;;33.40;22.00;;;1.30;99.90;;;;;;5116100;27;20432;-44
2021/01/05 06:26:16;;;;;;;36.00;24.30;;;1.30;99.90;;;;;;5135569;27;20225;-44
2021/01/05 06:28:42;;;;;;;36.83;23.53;;;1.30;99.90;;;;;;5135486;27;20453;-44
2021/01/05 06:31:08;;;;;;;36.33;25.00;;;1.30;99.90;;;;;;5136428;27;20424;-44
2021/01/05 06:33:34;;;;;;;38.70;23.80;;;1.30;99.90;;;;;;5137346;27;20493;-44
2021/01/05 06:36:00;;;;;;;37.70;24.80;;;1.30;99.90;;;;;;5137954;27;20519;-44
2021/01/05 06:38:26;;;;;;;38.37;23.90;;;1.30;99.90;;;;;;5137822;27;20450;-44
2021/01/05 06:40:51;;;;;;;37.63;23.53;;;1.30;99.90;;;;;;5135860;27;20416;-44
2021/01/05 06:43:17;;;;;;;35.80;24.00;;;1.30;99.90;;;;;;5121901;27;20264;-45
2021/01/05 06:45:43;;;;;;;38.93;24.60;;;1.30;99.90;;;;;;5126710;27;20283;-44
2021/01/05 06:48:09;;;;;;;35.10;23.57;;;1.30;99.90;;;;;;5127120;27;20482;-44
2021/01/05 06:50:35;;;;;;;38.97;24.63;;;1.40;99.90;;;;;;5125012;27;20500;-44
2021/01/05 06:53:00;;;;;;;37.77;24.00;;;1.40;99.90;;;;;;5126051;27;20583;-44
2021/01/05 06:55:26;;;;;;;37.10;22.50;;;1.40;99.90;;;;;;5125051;27;20256;-44
2021/01/05 06:57:52;;;;;;;40.03;24.23;;;1.40;99.90;;;;;;5127084;27;20187;-45
2021/01/05 07:00:23;;;;;;;40.93;25.73;;;1.30;99.90;;;;;;5125506;27;20249;-44
2021/01/05 07:02:49;;;;;;;34.83;23.27;;;1.30;99.90;;;;;;5127024;27;20630;-44
2021/01/05 07:05:16;;;;;;;34.83;23.40;;;1.30;99.90;;;;;;5134718;27;20432;-44
2021/01/05 07:07:42;;;;;;;36.93;22.87;;;1.30;99.90;;;;;;5122672;27;20873;-44
2021/01/05 07:10:08;;;;;;;40.33;24.80;;;1.30;99.90;;;;;;5138384;27;20428;-44
2021/01/05 07:12:35;;;;;;;39.40;24.70;;;1.30;99.90;;;;;;5137244;27;20242;-44
2021/01/05 07:15:01;;;;;;;36.07;24.87;;;1.40;99.90;;;;;;5136561;27;20760;-44
2021/01/05 07:17:26;;;;;;;37.80;24.83;;;1.40;99.90;;;;;;5138082;27;20836;-45
2021/01/05 07:19:52;;;;;;;39.67;23.33;;;1.40;99.90;;;;;;5137600;27;20267;-44
2021/01/05 07:22:18;;;;;;;42.13;25.10;;;1.40;99.90;;;;;;5135209;28;20186;-44
2021/01/05 07:24:43;;;;;;;40.47;25.77;;;1.50;99.90;;;;;;5136937;27;20183;-45
2021/01/05 07:27:09;;;;;;;37.10;24.13;;;1.50;99.90;;;;;;5137566;27;20198;-44
2021/01/05 07:29:35;;;;;;;41.53;26.50;;;1.50;99.90;;;;;;5137775;28;20718;-44
2021/01/05 07:32:00;;;;;;;35.50;23.07;;;1.50;99.90;;;;;;5135888;27;20191;-44
2021/01/05 07:34:26;;;;;;;38.20;24.40;;;1.50;99.90;;;;;;5136445;27;20187;-44
2021/01/05 07:36:58;;;;;;;33.17;22.40;;;1.50;99.90;;;;;;5136788;28;20584;-44
2021/01/05 07:39:24;;;;;;;37.80;22.87;;;1.50;99.90;;;;;;5135942;27;20552;-44
2021/01/05 07:41:51;;;;;;;38.17;23.77;;;1.50;99.90;;;;;;5136526;27;20546;-45
2021/01/05 07:44:18;;;;;;;43.20;25.03;;;1.50;99.90;;;;;;5136683;27;20432;-44
2021/01/05 07:46:44;;;;;;;36.53;25.03;;;1.50;99.90;;;;;;5136797;28;20417;-45
2021/01/05 07:49:10;;;;;;;38.27;24.97;;;1.40;99.90;;;;;;5138197;27;20456;-44
2021/01/05 07:51:36;;;;;;;38.70;23.70;;;1.40;99.90;;;;;;5127668;27;20468;-45
2021/01/05 07:54:02;;;;;;;40.17;24.57;;;1.40;99.90;;;;;;5130382;28;20464;-44
2021/01/05 07:56:27;;;;;;;40.07;24.07;;;1.40;99.90;;;;;;5137462;27;20266;-43
2021/01/05 07:58:53;;;;;;;37.30;24.40;;;1.40;99.90;;;;;;5135683;27;20508;-45
2021/01/05 08:01:19;;;;;;;36.57;23.77;;;1.40;99.90;;;;;;5137805;27;20217;-44
2021/01/05 08:03:45;;;;;;;40.00;24.83;;;1.40;99.90;;;;;;5136894;28;20183;-45
2021/01/05 08:06:11;;;;;;;45.30;25.87;;;1.40;99.90;;;;;;5126641;28;20188;-45
2021/01/05 08:08:39;;;;;;;40.93;26.67;;;1.40;99.90;;;;;;5125101;28;20179;-45
2021/01/05 08:11:05;;;;;;;40.57;25.60;;;1.40;99.90;;;;;;5125314;28;20429;-44
2021/01/05 08:13:31;;;;;;;43.67;26.27;;;1.40;99.90;;;;;;5127147;27;20469;-45
2021/01/05 08:15:56;;;;;;;37.07;24.13;;;1.50;99.90;;;;;;5121971;28;20246;-44
2021/01/05 08:18:22;;;;;;;39.50;25.73;;;1.50;99.90;;;;;;5126737;28;20556;-44
2021/01/05 08:20:48;;;;;;;42.80;25.67;;;1.50;99.90;;;;;;5126478;28;20180;-44
2021/01/05 08:23:18;;;;;;;38.50;24.13;;;1.50;99.90;;;;;;5129711;28;20194;-44
2021/01/05 08:25:44;;;;;;;37.60;23.90;;;1.60;99.90;;;;;;5124494;27;21845;-44
2021/01/05 08:28:09;;;;;;;35.00;22.10;;;1.60;99.90;;;;;;5132020;28;20428;-44
2021/01/05 08:30:38;;;;;;;36.63;23.73;;;1.60;99.90;;;;;;5124075;28;20186;-44
2021/01/05 08:33:08;;;;;;;35.57;21.60;;;1.60;99.90;;;;;;5125087;28;20215;-44
2021/01/05 08:35:34;;;;;;;37.63;22.33;;;1.60;99.90;;;;;;5116998;28;20417;-44
2021/01/05 08:38:00;;;;;;;34.97;21.13;;;1.60;99.90;;;;;;5140785;27;20768;-44
2021/01/05 08:40:32;;;;;;;39.20;23.40;;;1.60;99.90;;;;;;5139545;27;20199;-44
2021/01/05 08:42:59;;;;;;;36.77;23.23;;;1.60;99.90;;;;;;5120411;28;20426;-43
2021/01/05 08:45:25;;;;;;;34.37;22.50;;;1.60;99.90;;;;;;5136071;27;20439;-45
2021/01/05 08:47:51;;;;;;;28.60;20.43;;;1.60;99.90;;;;;;5124524;27;20703;-44
2021/01/05 08:50:28;;;;;;;28.53;20.30;;;1.70;99.90;;;;;;5117750;28;20195;-45
2021/01/05 08:52:54;;;;;;;28.90;18.77;;;1.70;99.90;;;;;;5127267;27;20218;-46
2021/01/05 08:55:20;;;;;;;29.90;21.43;;;1.70;99.90;;;;;;5140901;27;20997;-45
2021/01/05 08:57:45;;;;;;;29.13;19.53;;;1.70;99.90;;;;;;5127791;27;20494;-45
2021/01/05 09:00:13;;;;;;;28.70;19.70;;;1.80;99.90;;;;;;5119963;28;20223;-45
2021/01/05 09:02:39;;;;;;;33.00;20.33;;;1.80;99.90;;;;;;5119026;28;20187;-45
2021/01/05 09:05:06;;;;;;;31.93;21.00;;;1.70;99.90;;;;;;5117659;28;20425;-45
2021/01/05 09:07:31;;;;;;;29.87;19.80;;;1.70;99.90;;;;;;5117343;27;20504;-45
2021/01/05 09:09:57;;;;;;;24.80;18.20;;;1.80;99.90;;;;;;5127766;27;20822;-45
2021/01/05 09:12:24;;;;;;;24.97;18.67;;;1.80;99.90;;;;;;5137139;27;20219;-45
2021/01/05 09:14:50;;;;;;;26.77;19.50;;;1.80;99.90;;;;;;5137304;27;20242;-45
2021/01/05 09:17:17;;;;;;;29.13;18.97;;;1.80;99.90;;;;;;5138526;27;20413;-45
2021/01/05 09:19:42;;;;;;;24.70;17.77;;;1.90;99.90;;;;;;5139474;27;20183;-45
2021/01/05 09:22:08;;;;;;;24.07;18.90;;;1.90;99.90;;;;;;5127535;27;20448;-45
2021/01/05 09:24:34;;;;;;;27.00;18.17;;;1.90;99.90;;;;;;5119841;28;20190;-45
2021/01/05 09:26:59;;;;;;;28.63;20.20;;;1.90;99.90;;;;;;5119954;28;20184;-45
2021/01/05 09:29:26;;;;;;;30.53;21.17;;;1.90;99.90;;;;;;5120367;27;20245;-45
2021/01/05 09:31:53;;;;;;;25.87;19.23;;;1.90;99.90;;;;;;5139251;27;20307;-45
2021/01/05 09:34:21;;;;;;;26.60;19.10;;;1.90;99.90;;;;;;5139885;27;20468;-45
2021/01/05 09:36:47;;;;;;;24.67;17.93;;;1.90;99.90;;;;;;5139108;27;20509;-45
2021/01/05 09:39:14;;;;;;;24.20;17.20;;;1.90;99.90;;;;;;5139962;27;20836;-45
2021/01/05 09:41:49;;;;;;;26.07;19.73;;;1.90;99.90;;;;;;5122340;27;20439;-45
2021/01/05 09:44:15;;;;;;;25.50;18.80;;;1.90;99.90;;;;;;5118175;27;20830;-45
2021/01/05 09:46:41;;;;;;;29.70;20.40;;;1.90;99.90;;;;;;5117547;28;20417;-45
2021/01/05 09:49:10;;;;;;;23.03;17.53;;;1.90;99.90;;;;;;5118883;28;20754;-45
2021/01/05 09:51:36;;;;;;;28.27;20.50;;;1.90;99.90;;;;;;5118877;27;20456;-45
2021/01/05 09:54:02;;;;;;;25.83;18.20;;;1.90;99.90;;;;;;5118683;28;20466;-45
2021/01/05 09:56:28;;;;;;;27.33;18.90;;;1.90;99.90;;;;;;5118840;28;20414;-45
2021/01/05 09:58:54;;;;;;;26.27;18.17;;;2.00;99.90;;;;;;5117713;28;20180;-45
2021/01/05 10:01:31;;;;;;;25.60;18.43;;;1.90;99.90;;;;;;5138390;27;20183;-45
2021/01/05 10:03:57;;;;;;;28.77;20.27;;;2.00;99.90;;;;;;5137115;27;20397;-45
2021/01/05 10:06:31;;;;;;;26.80;20.30;;;2.00;99.90;;;;;;5136141;27;20570;-45
2021/01/05 10:08:59;;;;;;;27.10;18.47;;;2.10;99.90;;;;;;5124435;27;20417;-45
2021/01/05 10:11:32;;;;;;;24.73;19.73;;;2.10;99.90;;;;;;5116833;27;20777;-45
2021/01/05 10:13:58;;;;;;;22.93;17.43;;;2.20;99.90;;;;;;5119035;27;20567;-45
2021/01/05 10:16:23;;;;;;;27.30;19.23;;;2.20;99.90;;;;;;5137395;27;20507;-45
2021/01/05 10:18:49;;;;;;;25.70;16.97;;;2.20;99.90;;;;;;5137934;27;20171;-45
2021/01/05 10:21:14;;;;;;;24.03;18.53;;;2.20;99.90;;;;;;5123422;27;20469;-45
2021/01/05 10:23:40;;;;;;;23.10;16.93;;;2.20;99.90;;;;;;5117338;28;20176;-45
2021/01/05 10:26:06;;;;;;;25.07;17.87;;;2.20;99.90;;;;;;5116934;28;20187;-44
2021/01/05 10:28:31;;;;;;;27.57;20.07;;;2.20;99.90;;;;;;5117276;28;20191;-45
2021/01/05 10:30:57;;;;;;;28.97;19.27;;;2.20;99.90;;;;;;5116743;28;20637;-44
2021/01/05 10:33:23;;;;;;;26.80;18.03;;;2.20;99.90;;;;;;5115541;28;20630;-45
2021/01/05 10:35:50;;;;;;;27.00;20.10;;;2.20;99.90;;;;;;5117528;28;20214;-45
2021/01/05 10:38:16;;;;;;;28.07;19.33;;;2.20;99.90;;;;;;5116546;27;20191;-45
2021/01/05 10:40:41;;;;;;;30.27;21.27;;;2.20;99.90;;;;;;5116847;27;20430;-45
2021/01/05 10:43:07;;;;;;;30.17;21.27;;;2.20;99.90;;;;;;5118360;28;20439;-44
2021/01/05 10:45:33;;;;;;;28.57;21.03;;;2.20;99.90;;;;;;5118568;28;20267;-45
2021/01/05 10:47:58;;;;;;;32.10;20.67;;;2.20;99.90;;;;;;5117596;27;20657;-45
2021/01/05 10:50:25;;;;;;;30.00;20.43;;;2.20;99.90;;;;;;5118071;27;20187;-44
2021/01/05 10:52:51;;;;;;;25.83;19.13;;;2.20;99.90;;;;;;5117666;28;20243;-44
2021/01/05 10:55:21;;;;;;;27.20;20.63;;;2.20;99.90;;;;;;5118059;28;20498;-45
2021/01/05 10:57:48;;;;;;;29.57;20.00;;;2.20;99.90;;;;;;5116620;28;20418;-45
2021/01/05 11:00:16;;;;;;;27.50;21.47;;;2.30;99.90;;;;;;5116445;27;20425;-45
2021/01/05 11:02:42;;;;;;;31.97;23.43;;;2.30;99.90;;;;;;5117582;28;20421;-44
2021/01/05 11:05:11;;;;;;;26.17;20.40;;;2.30;99.90;;;;;;5118413;28;20956;-45
2021/01/05 11:07:37;;;;;;;25.67;19.67;;;2.30;99.90;;;;;;5117579;28;20195;-45
2021/01/05 11:10:03;;;;;;;25.13;19.57;;;2.40;99.90;;;;;;5118526;28;20761;-45
2021/01/05 11:12:29;;;;;;;30.30;20.87;;;2.50;99.90;;;;;;5118027;28;20591;-44
2021/01/05 11:14:54;;;;;;;24.70;19.60;;;2.50;99.90;;;;;;5136969;27;20472;-45
2021/01/05 11:17:20;;;;;;;27.30;19.60;;;2.50;99.90;;;;;;5137896;27;20171;-44
2021/01/05 11:19:46;;;;;;;26.07;19.03;;;2.50;99.90;;;;;;5128115;27;20187;-44
2021/01/05 11:22:18;;;;;;;28.07;19.53;;;2.50;99.90;;;;;;5115648;28;20253;-45
2021/01/05 11:24:45;;;;;;;27.30;19.30;;;2.50;99.90;;;;;;5116170;28;20211;-45
2021/01/05 11:27:13;;;;;;;28.17;19.50;;;2.50;99.90;;;;;;5115057;28;20425;-45
2021/01/05 11:29:39;;;;;;;27.73;19.70;;;2.50;99.90;;;;;;5134097;28;20528;-45
2021/01/05 11:32:07;;;;;;;27.40;19.53;;;2.60;99.90;;;;;;5137416;28;20508;-45
2021/01/05 11:34:33;;;;;;;26.40;19.63;;;2.50;99.90;;;;;;5137177;27;20214;-45
2021/01/05 11:37:04;;;;;;;29.87;19.37;;;2.50;99.90;;;;;;5137896;27;20699;-43
2021/01/05 11:39:30;;;;;;;30.03;20.50;;;2.60;99.90;;;;;;5122535;27;20187;-45
2021/01/05 11:42:00;;;;;;;22.40;17.50;;;2.60;99.90;;;;;;5117128;28;20408;-45
2021/01/05 11:44:27;;;;;;;30.03;18.83;;;2.70;99.90;;;;;;5116746;28;20414;-45
2021/01/05 11:46:53;;;;;;;47.17;33.37;;;2.70;99.90;;;;;;5121466;28;20417;-45
2021/01/05 11:49:19;;;;;;;53.33;35.73;;;2.70;99.90;;;;;;5137956;27;20755;-45
2021/01/05 11:51:44;;;;;;;49.93;32.33;;;2.80;99.90;;;;;;5137851;28;20405;-45
2021/01/05 11:54:11;;;;;;;30.03;22.27;;;2.80;99.90;;;;;;5137412;28;20467;-45
2021/01/05 11:56:37;;;;;;;24.30;18.43;;;2.80;99.90;;;;;;5137408;28;20190;-45
2021/01/05 11:59:03;;;;;;;26.53;18.63;;;2.80;99.90;;;;;;5136338;27;20428;-43
2021/01/05 12:01:35;;;;;;;25.47;19.80;;;2.80;99.70;;;;;;5132923;27;20187;-45
2021/01/05 12:04:00;;;;;;;26.73;19.70;;;2.80;99.60;;;;;;5117133;28;20894;-45
2021/01/05 12:06:26;;;;;;;23.13;18.10;;;2.80;99.80;;;;;;5116417;28;20516;-45
2021/01/05 12:08:52;;;;;;;28.40;20.40;;;2.80;99.80;;;;;;5131255;28;20194;-45
2021/01/05 12:11:18;;;;;;;27.47;18.73;;;2.80;99.60;;;;;;5138711;27;20555;-45
2021/01/05 12:13:44;;;;;;;24.43;17.27;;;2.70;99.50;;;;;;5141994;27;20464;-44
2021/01/05 12:16:10;;;;;;;26.17;18.90;;;2.70;99.60;;;;;;5137985;27;20711;-45
2021/01/05 12:18:37;;;;;;;23.97;17.97;;;2.60;99.60;;;;;;5120629;28;20175;-43
2021/01/05 12:21:03;;;;;;;27.33;19.07;;;2.60;99.70;;;;;;5120119;28;20180;-45
2021/01/05 12:23:28;;;;;;;26.30;17.80;;;2.60;99.90;;;;;;5120105;28;20695;-45
2021/01/05 12:25:54;;;;;;;24.93;18.67;;;2.60;99.90;;;;;;5121162;28;20218;-45
2021/01/05 12:28:20;;;;;;;28.50;19.43;;;2.60;99.90;;;;;;5138621;27;20198;-44
2021/01/05 12:30:45;;;;;;;29.97;22.07;;;2.60;99.90;;;;;;5141535;27;20194;-45
2021/01/05 12:33:11;;;;;;;30.20;20.83;;;2.50;99.90;;;;;;5140267;27;20297;-45
2021/01/05 12:35:44;;;;;;;28.90;22.57;;;2.50;99.90;;;;;;5139145;27;20191;-45
2021/01/05 12:38:10;;;;;;;29.20;21.17;;;2.50;99.90;;;;;;5140175;27;20183;-45
2021/01/05 12:40:35;;;;;;;27.33;19.73;;;2.50;99.90;;;;;;5140641;27;20420;-44
2021/01/05 12:43:01;;;;;;;27.53;19.30;;;2.50;99.90;;;;;;5141052;27;20857;-45
2021/01/05 12:45:27;;;;;;;28.67;19.77;;;2.50;99.90;;;;;;5140004;27;20430;-45
2021/01/05 12:47:53;;;;;;;29.20;19.00;;;2.60;99.90;;;;;;5138073;27;20434;-45
2021/01/05 12:50:18;;;;;;;28.07;19.97;;;2.60;99.90;;;;;;5137308;27;20187;-44
2021/01/05 12:52:48;;;;;;;28.77;20.63;;;2.60;99.90;;;;;;5127933;27;20725;-45